Time;durP1;ratioP1;P1;durP2;ratioP2;P2;SDS_P1;SDS_P2;PMS_P1;PMS_P2;Temp;Humidity;BMP_temperature;BMP_pressure;BME280_temperature;BME280_humidity;BME280_pressure;Samples;Min_cycle;Max_cycle;Signal;HPM_P1;HPM_P2
2023/11/03 00:00:03;;;;;;;26.23;16.58;;;;;;;11.42;67.65;94096.00;5040999;28;20029;-83
2023/11/03 00:02:30;;;;;;;27.95;16.80;;;;;;;11.44;67.39;94087.28;5041014;28;20029;-83
2023/11/03 00:05:00;;;;;;;26.90;16.80;;;;;;;11.43;67.60;94102.25;5023717;28;20033;-82
2023/11/03 00:07:26;;;;;;;26.92;17.33;;;;;;;11.37;67.77;94088.38;5024884;28;20052;-83
2023/11/03 00:09:51;;;;;;;29.40;16.85;;;;;;;11.41;67.61;94075.22;5025125;28;20400;-82
2023/11/03 00:12:17;;;;;;;27.92;17.60;;;;;;;11.39;67.67;94072.16;5042740;28;20061;-83
2023/11/03 00:14:43;;;;;;;25.63;16.05;;;;;;;11.41;67.31;94069.72;5014460;28;20050;-82
2023/11/03 00:17:09;;;;;;;33.30;17.90;;;;;;;11.33;67.33;94063.00;5038166;28;20026;-82
2023/11/03 00:19:35;;;;;;;25.38;17.08;;;;;;;11.33;67.21;94074.00;5041380;28;20042;-82
2023/11/03 00:22:00;;;;;;;28.13;16.05;;;;;;;11.33;67.26;94063.00;5009667;28;20041;-82
2023/11/03 00:24:26;;;;;;;23.45;15.05;;;;;;;11.31;67.26;94061.94;5041868;28;20026;-82
2023/11/03 00:26:54;;;;;;;27.80;17.48;;;;;;;11.27;67.41;94078.59;5044081;28;20032;-82
2023/11/03 00:29:23;;;;;;;31.90;16.85;;;;;;;11.21;67.31;94107.97;5030015;28;20034;-83
2023/11/03 00:31:49;;;;;;;29.02;17.15;;;;;;;11.20;67.53;94102.94;5022867;28;20468;-83
2023/11/03 00:34:15;;;;;;;26.38;16.48;;;;;;;11.16;67.37;94098.31;5041831;28;20022;-82
2023/11/03 00:36:45;;;;;;;31.83;17.23;;;;;;;11.20;67.13;94098.19;5041759;28;20018;-83
2023/11/03 00:39:12;;;;;;;27.60;16.85;;;;;;;11.16;67.16;94103.84;5009323;28;20105;-83
2023/11/03 00:41:42;;;;;;;28.25;17.08;;;;;;;11.12;67.23;94102.47;5044617;28;20060;-82
2023/11/03 00:44:09;;;;;;;30.58;16.42;;;;;;;11.14;67.07;94111.78;5027751;28;20064;-83
2023/11/03 00:46:35;;;;;;;26.13;16.13;;;;;;;11.11;67.18;94109.19;5027577;28;20460;-80
2023/11/03 00:49:11;;;;;;;28.77;15.52;;;;;;;11.07;67.26;94114.09;5027514;28;20030;-83
2023/11/03 00:51:37;;;;;;;27.35;16.42;;;;;;;11.08;67.43;94110.88;5028302;28;20536;-84
2023/11/03 00:54:03;;;;;;;25.58;15.55;;;;;;;11.04;67.57;94106.75;5043447;28;20056;-84
2023/11/03 00:56:29;;;;;;;25.25;16.48;;;;;;;11.03;67.52;94107.97;5044081;28;20022;-84
2023/11/03 00:58:54;;;;;;;26.42;17.17;;;;;;;11.01;67.89;94111.19;5044362;28;20018;-84
2023/11/03 01:01:20;;;;;;;27.23;16.95;;;;;;;10.99;67.86;94110.13;5028521;28;20692;-84
2023/11/03 01:03:46;;;;;;;34.05;18.67;;;;;;;10.98;68.36;94100.34;5044272;28;20526;-84
2023/11/03 01:06:11;;;;;;;31.40;17.33;;;;;;;10.90;68.75;94100.66;5028241;28;20025;-84
2023/11/03 01:08:37;;;;;;;30.35;18.27;;;;;;;10.96;68.86;94094.56;5015227;28;20025;-85
2023/11/03 01:11:03;;;;;;;30.90;18.67;;;;;;;10.91;69.06;94101.41;5043474;28;20099;-84
2023/11/03 01:13:29;;;;;;;30.70;18.80;;;;;;;10.85;68.93;94114.25;5009226;28;20361;-84
2023/11/03 01:15:55;;;;;;;32.63;18.23;;;;;;;10.82;68.87;94118.66;5008767;28;20045;-84
2023/11/03 01:18:21;;;;;;;30.85;17.85;;;;;;;10.89;68.53;94121.09;5039448;28;20022;-83
2023/11/03 01:20:52;;;;;;;30.10;18.25;;;;;;;10.84;68.30;94116.25;5008729;28;20026;-83
2023/11/03 01:23:18;;;;;;;29.52;17.90;;;;;;;10.85;68.45;94119.75;5038476;28;20037;-83
2023/11/03 01:25:45;;;;;;;30.45;18.10;;;;;;;10.83;68.52;94130.44;5040628;28;20026;-84
2023/11/03 01:28:12;;;;;;;30.63;19.00;;;;;;;10.83;68.96;94122.19;5009939;28;20029;-84
2023/11/03 01:30:39;;;;;;;32.75;18.77;;;;;;;10.84;69.07;94124.50;5027295;28;20061;-83
2023/11/03 01:33:05;;;;;;;33.75;18.58;;;;;;;10.89;69.05;94121.09;5028315;28;20104;-84
2023/11/03 01:35:31;;;;;;;34.25;19.17;;;;;;;10.84;69.07;94135.50;5042756;28;20033;-83
2023/11/03 01:37:57;;;;;;;30.42;19.10;;;;;;;10.86;68.81;94133.03;5043649;28;20032;-84
2023/11/03 01:40:22;;;;;;;31.33;17.83;;;;;;;10.84;68.81;94134.72;5026290;28;20025;-83
2023/11/03 01:42:48;;;;;;;31.90;20.08;;;;;;;10.80;68.98;94131.34;5043141;28;20033;-84
2023/11/03 01:45:14;;;;;;;36.63;19.73;;;;;;;10.63;69.46;94115.16;5026129;28;20053;-84
2023/11/03 01:47:40;;;;;;;32.30;18.92;;;;;;;10.64;69.34;94127.66;5043962;28;20484;-83
2023/11/03 01:50:06;;;;;;;36.28;20.27;;;;;;;10.60;69.07;94102.31;5026276;28;20040;-83
2023/11/03 01:52:35;;;;;;;32.20;18.73;;;;;;;10.62;69.18;94112.88;5026599;28;20404;-84
2023/11/03 01:55:01;;;;;;;34.15;19.33;;;;;;;10.60;69.13;94107.03;5043054;28;20061;-84
2023/11/03 01:57:27;;;;;;;34.03;20.88;;;;;;;10.56;69.34;94089.97;5027649;28;20026;-84
2023/11/03 01:59:53;;;;;;;33.38;19.15;;;;;;;10.63;69.42;94084.16;5040808;28;20117;-83
2023/11/03 02:02:22;;;;;;;37.42;19.75;;;;;;;10.59;69.55;94098.03;5008282;28;20105;-84
2023/11/03 02:04:47;;;;;;;35.20;20.75;;;;;;;10.55;69.89;94100.19;5040562;28;20030;-86
2023/11/03 02:07:13;;;;;;;33.08;18.90;;;;;;;10.55;69.74;94093.91;5042217;28;20030;-83
2023/11/03 02:09:38;;;;;;;35.22;21.65;;;;;;;10.54;69.74;94081.41;5040343;28;20026;-84
2023/11/03 02:12:05;;;;;;;35.58;19.90;;;;;;;10.58;69.69;94079.25;5007987;28;20033;-84
2023/11/03 02:14:32;;;;;;;32.95;19.77;;;;;;;10.61;69.45;94072.88;5039318;28;20178;-84
2023/11/03 02:16:58;;;;;;;35.72;20.10;;;;;;;10.63;69.46;94070.41;5039480;28;20135;-83
2023/11/03 02:19:24;;;;;;;37.58;20.40;;;;;;;10.61;69.62;94072.88;5038845;28;20046;-84
2023/11/03 02:21:49;;;;;;;37.55;20.90;;;;;;;10.67;69.49;94070.25;5023121;28;20074;-83
2023/11/03 02:24:15;;;;;;;34.15;21.27;;;;;;;10.60;69.72;94072.06;5007205;28;20018;-85
2023/11/03 02:26:40;;;;;;;32.80;19.00;;;;;;;10.68;69.42;94071.78;5023630;28;20165;-84
2023/11/03 02:29:06;;;;;;;32.45;20.02;;;;;;;10.64;69.49;94060.94;5030940;28;20025;-85
2023/11/03 02:31:32;;;;;;;32.22;20.40;;;;;;;10.66;69.79;94058.50;5025671;28;20037;-85
2023/11/03 02:33:57;;;;;;;33.67;20.65;;;;;;;10.64;69.84;94077.44;5039745;28;20025;-84
2023/11/03 02:36:23;;;;;;;34.38;19.88;;;;;;;10.67;69.48;94067.50;5005820;28;20030;-84
2023/11/03 02:38:52;;;;;;;35.00;20.70;;;;;;;10.67;69.53;94062.78;5025933;28;20133;-84
2023/11/03 02:41:19;;;;;;;34.15;20.83;;;;;;;10.61;69.25;94046.16;5024278;28;20030;-85
2023/11/03 02:43:44;;;;;;;33.47;21.05;;;;;;;10.67;69.56;94054.53;5042998;28;20099;-84
2023/11/03 02:46:10;;;;;;;33.97;21.95;;;;;;;10.72;69.49;94056.66;5042115;28;20018;-84
2023/11/03 02:48:35;;;;;;;31.05;20.17;;;;;;;10.70;69.34;94053.63;5027368;28;20033;-84
2023/11/03 02:51:03;;;;;;;33.17;20.70;;;;;;;10.68;69.45;94063.56;5012660;28;20109;-84
2023/11/03 02:53:31;;;;;;;36.33;19.65;;;;;;;10.70;69.70;94072.09;5005620;28;20034;-85
2023/11/03 02:55:56;;;;;;;34.45;20.70;;;;;;;10.70;69.84;94063.84;5007438;28;20034;-85
2023/11/03 02:58:27;;;;;;;37.25;20.75;;;;;;;10.68;69.84;94050.56;5006851;28;20465;-84
2023/11/03 03:00:53;;;;;;;37.80;23.15;;;;;;;10.70;69.96;94053.63;5039265;28;20032;-84
2023/11/03 03:03:18;;;;;;;37.28;22.75;;;;;;;10.69;70.14;94045.84;5006467;28;20025;-84
2023/11/03 03:05:44;;;;;;;34.20;21.83;;;;;;;10.68;70.33;94039.56;5039366;28;20110;-84
2023/11/03 03:08:09;;;;;;;35.50;21.02;;;;;;;10.71;70.42;94038.63;5006758;28;20504;-85
2023/11/03 03:10:35;;;;;;;38.50;20.77;;;;;;;10.75;70.17;94036.50;5039416;28;20036;-85
2023/11/03 03:13:02;;;;;;;36.00;20.55;;;;;;;10.78;70.12;94056.81;5026653;28;20029;-83
2023/11/03 03:15:28;;;;;;;35.65;21.67;;;;;;;10.75;70.24;94046.75;5025658;28;20087;-83
2023/11/03 03:17:53;;;;;;;37.08;20.30;;;;;;;10.79;70.13;94031.63;5026301;28;20036;-84
2023/11/03 03:20:19;;;;;;;36.55;22.30;;;;;;;10.79;69.93;94053.63;5040412;28;20088;-84
2023/11/03 03:22:45;;;;;;;34.70;20.98;;;;;;;10.78;70.01;94041.09;5029963;28;20065;-84
2023/11/03 03:25:10;;;;;;;36.15;22.23;;;;;;;10.83;70.22;94034.97;5015107;28;20073;-84
2023/11/03 03:27:36;;;;;;;38.63;21.60;;;;;;;10.86;70.11;94053.31;5038070;28;20026;-83
2023/11/03 03:30:02;;;;;;;39.30;20.98;;;;;;;10.68;70.22;94042.31;5038047;28;20099;-83
2023/11/03 03:32:28;;;;;;;35.95;21.60;;;;;;;10.67;70.19;94054.53;5037574;28;20073;-85
2023/11/03 03:34:53;;;;;;;33.95;21.02;;;;;;;10.69;70.48;94051.34;5038183;28;20034;-81
2023/11/03 03:37:19;;;;;;;36.95;22.20;;;;;;;10.71;70.35;94052.38;5040338;28;20025;-82
2023/11/03 03:39:44;;;;;;;38.47;21.08;;;;;;;10.72;70.15;94044.91;5025100;28;20029;-82
2023/11/03 03:42:10;;;;;;;36.05;20.45;;;;;;;10.70;69.93;94030.88;5007632;28;20042;-82
2023/11/03 03:44:40;;;;;;;37.47;21.52;;;;;;;10.71;70.02;94033.16;5040764;28;20041;-83
2023/11/03 03:47:06;;;;;;;34.55;21.88;;;;;;;10.77;69.80;94031.31;5024389;28;20022;-82
2023/11/03 03:49:31;;;;;;;33.90;20.02;;;;;;;10.78;70.10;94030.09;5024037;28;20076;-82
2023/11/03 03:51:56;;;;;;;40.47;21.77;;;;;;;10.80;70.14;94024.13;5023408;28;20208;-82
2023/11/03 03:54:22;;;;;;;33.03;20.02;;;;;;;10.79;70.16;94008.88;5025114;28;20530;-81
2023/11/03 03:56:47;;;;;;;36.35;20.98;;;;;;;10.83;69.98;94017.69;5024151;28;20025;-84
2023/11/03 03:59:12;;;;;;;39.45;22.33;;;;;;;10.83;69.94;94012.97;5019959;28;20026;-83
2023/11/03 04:01:38;;;;;;;37.20;21.33;;;;;;;10.85;69.87;94026.28;5009216;28;20120;-82
2023/11/03 04:04:03;;;;;;;31.13;20.73;;;;;;;10.86;69.75;94022.28;5007254;28;20026;-84
2023/11/03 04:06:29;;;;;;;35.67;20.67;;;;;;;10.86;69.48;94001.06;5008175;28;20033;-86
2023/11/03 04:08:54;;;;;;;33.13;19.88;;;;;;;10.89;69.51;94000.13;5026619;28;20116;-83
2023/11/03 04:11:20;;;;;;;36.50;21.20;;;;;;;10.86;69.60;93995.56;5017286;28;20038;-83
2023/11/03 04:13:45;;;;;;;36.83;20.67;;;;;;;10.92;69.97;93986.69;5037698;28;20026;-83
2023/11/03 04:16:10;;;;;;;36.05;20.90;;;;;;;10.88;69.87;93978.59;5005346;28;20038;-82
2023/11/03 04:18:39;;;;;;;32.42;19.30;;;;;;;10.88;69.97;93973.84;5037447;28;20100;-83
2023/11/03 04:21:04;;;;;;;38.80;20.98;;;;;;;10.85;69.53;93954.78;5037009;28;20083;-83
2023/11/03 04:23:30;;;;;;;36.58;21.40;;;;;;;10.86;69.52;93950.81;5005994;28;20033;-83
2023/11/03 04:25:55;;;;;;;31.92;19.20;;;;;;;10.84;69.17;93956.78;5005507;28;20623;-83
2023/11/03 04:28:20;;;;;;;33.67;20.17;;;;;;;10.84;69.23;93976.03;5012235;28;20033;-83
2023/11/03 04:30:46;;;;;;;34.90;19.67;;;;;;;10.86;69.21;93986.56;5025409;28;20464;-83
2023/11/03 04:33:14;;;;;;;36.33;20.70;;;;;;;10.84;69.09;93998.03;5040380;28;20029;-83
2023/11/03 04:35:40;;;;;;;38.05;21.85;;;;;;;10.83;69.45;93987.47;5024055;28;20031;-83
2023/11/03 04:38:05;;;;;;;35.15;20.25;;;;;;;10.84;69.84;93991.75;5038410;28;20089;-83
2023/11/03 04:40:30;;;;;;;41.22;22.88;;;;;;;10.86;69.92;93998.31;5040607;28;20473;-83
2023/11/03 04:42:56;;;;;;;37.65;21.23;;;;;;;10.86;69.96;93998.31;5024906;28;20036;-83
2023/11/03 04:45:25;;;;;;;32.22;20.63;;;;;;;10.88;69.95;93993.09;5031518;28;20028;-84
2023/11/03 04:47:50;;;;;;;38.25;22.13;;;;;;;10.80;69.88;93991.16;5039757;28;20385;-83
2023/11/03 04:50:16;;;;;;;39.22;21.92;;;;;;;10.87;69.55;93979.81;5025013;28;20036;-82
2023/11/03 04:52:42;;;;;;;40.15;21.65;;;;;;;10.86;70.03;93976.31;5019177;28;20032;-83
2023/11/03 04:55:08;;;;;;;42.63;23.38;;;;;;;10.90;70.02;93982.44;5007317;28;20026;-83
2023/11/03 04:57:37;;;;;;;37.88;21.17;;;;;;;10.85;70.44;93971.28;5025292;28;20626;-85
2023/11/03 05:00:04;;;;;;;34.58;21.95;;;;;;;10.83;70.57;93981.97;5040112;28;20450;-82
2023/11/03 05:02:29;;;;;;;36.95;22.98;;;;;;;10.73;70.71;93977.72;4988881;28;20110;-81
2023/11/03 05:04:55;;;;;;;42.03;23.73;;;;;;;10.80;70.41;93980.16;5039250;28;20112;-81
2023/11/03 05:07:21;;;;;;;41.33;23.65;;;;;;;10.78;70.36;93966.88;5040718;28;20853;-80
2023/11/03 05:09:47;;;;;;;38.55;23.48;;;;;;;10.83;70.52;93977.22;5007304;28;20030;-79
2023/11/03 05:12:12;;;;;;;38.90;22.98;;;;;;;10.81;70.16;93982.44;4990540;28;20100;-81
2023/11/03 05:14:38;;;;;;;39.55;22.30;;;;;;;10.87;70.34;93977.06;5008544;28;20030;-81
2023/11/03 05:17:06;;;;;;;39.90;21.73;;;;;;;10.89;70.23;93971.88;5026176;28;20479;-81
2023/11/03 05:19:32;;;;;;;39.17;22.70;;;;;;;10.96;70.13;93974.31;5028614;28;20089;-81
2023/11/03 05:21:58;;;;;;;37.97;22.95;;;;;;;10.95;70.74;93922.50;5038365;28;20088;-83
2023/11/03 05:24:23;;;;;;;41.03;23.25;;;;;;;10.90;70.75;93943.94;5040634;28;20404;-81
2023/11/03 05:26:49;;;;;;;41.72;22.13;;;;;;;10.95;70.76;93952.75;5039870;28;20037;-82
2023/11/03 05:29:14;;;;;;;40.70;23.60;;;;;;;11.00;70.68;93955.66;5009168;28;20156;-80
2023/11/03 05:31:40;;;;;;;41.10;21.75;;;;;;;11.03;70.93;93931.97;5043113;28;20033;-80
2023/11/03 05:34:05;;;;;;;39.80;21.77;;;;;;;11.10;71.40;93928.88;5016292;28;20022;-81
2023/11/03 05:36:31;;;;;;;35.95;21.08;;;;;;;10.98;71.94;93907.84;5008788;28;20026;-82
2023/11/03 05:38:56;;;;;;;38.95;21.92;;;;;;;11.01;71.83;93920.66;5038424;28;20030;-82
2023/11/03 05:41:23;;;;;;;35.58;19.92;;;;;;;11.01;71.79;93921.44;5007767;28;20127;-84
2023/11/03 05:43:49;;;;;;;33.60;20.60;;;;;;;11.05;71.79;93932.25;5039033;28;20048;-83
2023/11/03 05:46:15;;;;;;;36.22;20.58;;;;;;;11.06;71.81;93940.03;5008251;28;20038;-80
2023/11/03 05:48:40;;;;;;;36.47;20.27;;;;;;;11.11;71.69;93931.16;5045903;28;20479;-82
2023/11/03 05:51:06;;;;;;;39.50;22.15;;;;;;;11.16;71.67;93929.78;5062446;28;20491;-82
2023/11/03 05:53:31;;;;;;;38.60;22.02;;;;;;;11.20;71.66;93916.63;5039623;28;20123;-82
2023/11/03 05:55:57;;;;;;;36.75;22.33;;;;;;;11.24;71.37;93928.22;5042795;28;20060;-82
2023/11/03 05:58:22;;;;;;;39.35;21.73;;;;;;;11.26;71.48;93917.50;5027143;28;20021;-82
2023/11/03 06:00:48;;;;;;;36.10;20.27;;;;;;;11.28;71.33;93925.28;5027452;28;20162;-82
2023/11/03 06:03:13;;;;;;;37.60;20.67;;;;;;;11.30;71.10;93918.09;5026938;28;20446;-82
2023/11/03 06:05:39;;;;;;;35.63;22.13;;;;;;;11.34;71.04;93918.69;5027373;28;20492;-81
2023/11/03 06:08:05;;;;;;;34.65;20.80;;;;;;;11.39;70.90;93936.56;5027693;28;20400;-83
2023/11/03 06:10:30;;;;;;;38.45;21.27;;;;;;;11.39;70.88;93928.28;5026438;28;20117;-82
2023/11/03 06:12:56;;;;;;;42.63;22.95;;;;;;;11.44;70.68;93935.91;5045645;28;20021;-80
2023/11/03 06:15:21;;;;;;;41.72;23.58;;;;;;;11.47;70.66;93918.47;5026761;28;20167;-82
2023/11/03 06:17:46;;;;;;;40.47;22.48;;;;;;;11.51;70.29;93929.31;5042803;28;20131;-82
2023/11/03 06:20:12;;;;;;;42.78;23.33;;;;;;;11.59;70.12;93913.97;5028551;28;20045;-80
2023/11/03 06:22:37;;;;;;;36.42;22.77;;;;;;;11.52;70.28;93904.06;5027853;28;20033;-79
2023/11/03 06:25:03;;;;;;;37.67;21.65;;;;;;;11.54;70.26;93915.38;5027569;28;20573;-81
2023/11/03 06:27:29;;;;;;;36.60;23.00;;;;;;;11.58;70.25;93906.94;5062452;28;20467;-80
2023/11/03 06:29:54;;;;;;;36.33;21.92;;;;;;;11.60;70.29;93916.25;5060288;28;20021;-79
2023/11/03 06:32:20;;;;;;;38.33;21.50;;;;;;;11.65;70.32;93901.84;5046927;28;20025;-79
2023/11/03 06:34:45;;;;;;;34.05;20.35;;;;;;;11.63;70.31;93898.03;5061772;28;20021;-82
2023/11/03 06:37:11;;;;;;;35.55;22.35;;;;;;;11.73;70.11;93912.50;5062366;28;20021;-81
2023/11/03 06:39:37;;;;;;;38.65;21.88;;;;;;;11.67;69.94;93899.38;5061620;28;20056;-83
2023/11/03 06:42:03;;;;;;;37.45;21.35;;;;;;;11.70;70.32;93906.72;5047294;28;20569;-79
2023/11/03 06:44:29;;;;;;;36.80;22.65;;;;;;;11.75;70.13;93904.53;5061490;28;20597;-78
2023/11/03 06:46:54;;;;;;;40.80;22.40;;;;;;;11.81;70.02;93914.47;5045033;28;20025;-77
2023/11/03 06:49:20;;;;;;;36.50;21.48;;;;;;;11.87;69.97;93889.78;5045205;28;20028;-77
2023/11/03 06:51:45;;;;;;;34.03;21.23;;;;;;;11.95;69.78;93911.00;5044870;28;20017;-78
2023/11/03 06:54:11;;;;;;;39.72;21.48;;;;;;;11.98;69.70;93911.28;5046584;28;20025;-78
2023/11/03 06:56:36;;;;;;;38.65;20.42;;;;;;;12.02;69.61;93923.66;5045786;28;20029;-80
2023/11/03 06:59:03;;;;;;;40.20;21.83;;;;;;;12.09;69.52;93925.28;5046782;28;20029;-79
2023/11/03 07:01:29;;;;;;;37.63;21.33;;;;;;;12.13;69.62;93923.88;5043331;28;20104;-80
2023/11/03 07:03:54;;;;;;;37.35;21.23;;;;;;;12.18;69.42;93914.19;5044740;28;20067;-79
2023/11/03 07:06:20;;;;;;;39.72;22.33;;;;;;;12.28;69.25;93896.38;5030813;28;20029;-79
2023/11/03 07:08:47;;;;;;;32.97;20.85;;;;;;;12.34;69.11;93888.19;5039793;28;20506;-79
2023/11/03 07:11:12;;;;;;;33.47;21.70;;;;;;;12.39;68.96;93869.00;5045412;28;20052;-80
2023/11/03 07:13:38;;;;;;;33.20;21.80;;;;;;;12.46;68.96;93857.59;5024374;28;20492;-80
2023/11/03 07:16:04;;;;;;;37.78;20.98;;;;;;;12.55;68.77;93872.50;5024807;28;20034;-80
2023/11/03 07:18:30;;;;;;;35.88;22.08;;;;;;;12.61;68.67;93870.59;5023846;28;20143;-80
2023/11/03 07:20:56;;;;;;;35.33;22.02;;;;;;;12.65;68.51;93873.94;5026608;28;20446;-80
2023/11/03 07:23:21;;;;;;;34.70;20.58;;;;;;;12.71;68.72;93872.78;5016389;28;20046;-82
2023/11/03 07:25:50;;;;;;;40.83;22.40;;;;;;;12.75;68.76;93872.63;5038071;28;20029;-82
2023/11/03 07:28:19;;;;;;;35.42;23.83;;;;;;;12.77;68.77;93876.41;5005392;28;20088;-85
2023/11/03 07:30:45;;;;;;;36.60;22.50;;;;;;;12.83;68.67;93875.75;5038017;28;20038;-79
2023/11/03 07:33:11;;;;;;;39.60;21.50;;;;;;;12.77;68.60;93879.16;5037892;28;20471;-81
2023/11/03 07:35:37;;;;;;;38.63;23.42;;;;;;;12.84;68.38;93882.78;5005407;28;20034;-84
2023/11/03 07:38:04;;;;;;;40.25;22.88;;;;;;;12.89;68.37;93893.13;5037987;28;20030;-76
2023/11/03 07:40:30;;;;;;;39.05;21.95;;;;;;;12.88;68.11;93900.66;5006288;28;20049;-77
2023/11/03 07:42:55;;;;;;;36.88;22.60;;;;;;;12.95;67.87;93878.19;5039766;28;20065;-80
2023/11/03 07:45:23;;;;;;;39.92;22.45;;;;;;;12.95;67.72;93874.69;5024421;28;20429;-81
2023/11/03 07:47:49;;;;;;;36.45;21.40;;;;;;;12.90;67.70;93861.56;5034574;28;20480;-78
2023/11/03 07:50:16;;;;;;;33.40;19.55;;;;;;;12.88;67.79;93866.78;5006082;28;20034;-81
2023/11/03 07:52:43;;;;;;;35.88;20.67;;;;;;;12.88;67.96;93864.03;5025438;28;20113;-88
2023/11/03 07:55:09;;;;;;;40.17;20.52;;;;;;;12.88;67.71;93864.78;5024689;28;20033;-80
2023/11/03 07:57:38;;;;;;;37.40;21.05;;;;;;;12.91;67.79;93869.38;5020502;28;20437;-82
2023/11/03 08:00:12;;;;;;;39.22;21.23;;;;;;;12.76;67.54;93849.31;5025166;28;20030;-79
2023/11/03 08:02:37;;;;;;;34.85;20.55;;;;;;;12.92;67.77;93864.63;5039887;28;20423;-80
2023/11/03 08:05:09;;;;;;;40.30;20.35;;;;;;;12.93;67.66;93869.66;5023625;28;20025;-79
2023/11/03 08:07:35;;;;;;;38.88;23.20;;;;;;;12.94;67.73;93871.16;5040270;28;20463;-82
2023/11/03 08:10:03;;;;;;;35.90;21.42;;;;;;;12.95;67.87;93855.38;5022453;28;20036;-82
2023/11/03 08:12:28;;;;;;;36.15;22.02;;;;;;;12.97;67.62;93850.16;5011198;28;20411;-79
2023/11/03 08:14:55;;;;;;;36.75;20.92;;;;;;;13.06;67.42;93863.81;4989297;28;20034;-79
2023/11/03 08:17:20;;;;;;;41.00;22.27;;;;;;;13.04;67.58;93866.31;5025931;28;20017;-83
2023/11/03 08:19:47;;;;;;;43.83;22.58;;;;;;;13.01;67.80;93868.00;5035955;28;20551;-86
2023/11/03 08:22:12;;;;;;;38.28;21.65;;;;;;;13.03;67.91;93882.09;5036780;28;20033;-79
2023/11/03 08:24:37;;;;;;;36.55;21.20;;;;;;;13.05;67.64;93873.34;5039727;28;20082;-82
2023/11/03 08:27:03;;;;;;;36.63;21.88;;;;;;;13.09;67.84;93867.63;5040170;28;20030;-82
2023/11/03 08:29:29;;;;;;;39.17;24.30;;;;;;;13.08;67.85;93858.59;5022789;28;20032;-77
2023/11/03 08:31:54;;;;;;;40.28;22.27;;;;;;;13.13;67.87;93857.13;5023855;28;20029;-78
2023/11/03 08:34:20;;;;;;;38.42;20.52;;;;;;;13.18;67.87;93848.19;5024391;28;20082;-77
2023/11/03 08:36:46;;;;;;;36.63;21.90;;;;;;;13.18;67.78;93837.16;5013087;28;20477;-79
2023/11/03 08:39:12;;;;;;;37.42;21.52;;;;;;;13.25;67.80;93842.31;5039358;28;20108;-77
2023/11/03 08:41:39;;;;;;;36.08;21.23;;;;;;;13.23;67.99;93833.75;5040563;28;20137;-81
2023/11/03 08:44:05;;;;;;;39.20;22.55;;;;;;;13.31;67.69;93856.19;5021666;28;20420;-80
2023/11/03 08:46:30;;;;;;;35.47;20.95;;;;;;;13.35;67.97;93859.50;5064166;28;20032;-81
2023/11/03 08:48:56;;;;;;;42.50;24.48;;;;;;;13.35;67.92;93840.94;5056140;28;20033;-80
2023/11/03 08:51:23;;;;;;;38.95;23.27;;;;;;;13.42;67.89;93843.31;5029095;28;20025;-80
2023/11/03 08:53:49;;;;;;;42.35;24.08;;;;;;;13.45;67.74;93856.13;5038073;28;20448;-81
2023/11/03 08:56:14;;;;;;;47.83;24.38;;;;;;;13.49;67.81;93842.88;5040552;28;20104;-82
2023/11/03 08:58:41;;;;;;;36.03;23.55;;;;;;;13.58;67.60;93847.50;5043410;28;20033;-82
2023/11/03 09:01:07;;;;;;;40.65;24.73;;;;;;;13.61;67.51;93856.84;5030866;28;20117;-82
2023/11/03 09:03:34;;;;;;;37.38;22.25;;;;;;;13.68;67.42;93851.66;5014872;28;20120;-83
2023/11/03 09:06:00;;;;;;;37.22;22.60;;;;;;;13.75;67.21;93834.66;5008627;28;20304;-81
2023/11/03 09:08:25;;;;;;;33.88;20.83;;;;;;;13.81;67.26;93834.72;5041077;28;20263;-82
2023/11/03 09:10:51;;;;;;;34.28;21.02;;;;;;;13.92;67.05;93837.63;5042010;28;20018;-81
2023/11/03 09:13:16;;;;;;;37.53;21.83;;;;;;;14.06;66.69;93845.09;5055225;28;20025;-80
2023/11/03 09:15:44;;;;;;;33.95;21.15;;;;;;;14.23;66.69;93842.50;5043045;28;20480;-82
2023/11/03 09:18:09;;;;;;;34.70;20.45;;;;;;;14.43;66.06;93841.69;5028022;28;20033;-82
2023/11/03 09:20:35;;;;;;;34.90;20.27;;;;;;;14.78;65.27;93843.53;5026808;28;20045;-83
2023/11/03 09:23:00;;;;;;;30.60;18.58;;;;;;;15.77;62.80;93824.53;5022285;28;20455;-82
2023/11/03 09:25:25;;;;;;;29.02;19.15;;;;;;;15.88;62.19;93827.34;5017173;28;20025;-80
2023/11/03 09:27:51;;;;;;;34.33;18.05;;;;;;;16.18;61.12;93827.72;5043894;28;20061;-82
2023/11/03 09:30:18;;;;;;;27.52;18.33;;;;;;;16.36;61.12;93812.63;5048768;28;20510;-81
2023/11/03 09:32:47;;;;;;;34.72;18.73;;;;;;;16.69;59.27;93807.13;5047105;28;20067;-78
2023/11/03 09:35:13;;;;;;;32.38;17.85;;;;;;;16.84;58.07;93795.78;5048524;28;20017;-76
2023/11/03 09:37:38;;;;;;;27.00;16.67;;;;;;;17.17;57.16;93795.00;5022577;28;20030;-78
2023/11/03 09:40:06;;;;;;;25.50;16.52;;;;;;;18.14;53.81;93780.28;5008697;28;20026;-81
2023/11/03 09:42:32;;;;;;;27.35;16.95;;;;;;;18.84;52.24;93783.63;5007901;28;20037;-79
2023/11/03 09:44:58;;;;;;;29.20;15.90;;;;;;;19.78;50.60;93772.09;5007117;28;20033;-81
2023/11/03 09:47:25;;;;;;;20.15;14.00;;;;;;;20.81;45.95;93763.31;5011644;28;20014;-79
2023/11/03 09:49:53;;;;;;;20.55;12.77;;;;;;;21.61;46.03;93743.91;5024172;28;20033;-78
2023/11/03 09:52:19;;;;;;;18.05;10.40;;;;;;;22.16;43.63;93747.63;5043351;28;20049;-76
2023/11/03 09:54:45;;;;;;;15.75;10.82;;;;;;;22.25;43.22;93752.78;5043377;28;20068;-85
2023/11/03 09:57:12;;;;;;;12.13;9.23;;;;;;;22.05;42.44;93738.69;5043821;28;20489;-80
2023/11/03 09:59:40;;;;;;;13.65;10.43;;;;;;;22.41;42.91;93714.50;5021750;28;20153;-78
2023/11/03 10:02:09;;;;;;;13.98;9.85;;;;;;;23.17;41.74;93742.50;5008675;28;20506;-78
2023/11/03 10:04:39;;;;;;;14.43;10.60;;;;;;;23.59;40.30;93734.00;5008049;28;20025;-78
2023/11/03 10:07:05;;;;;;;14.88;10.02;;;;;;;24.00;40.06;93712.75;5005827;28;20120;-76
2023/11/03 10:09:32;;;;;;;12.00;9.48;;;;;;;24.72;38.38;93728.72;5039899;28;20061;-77
2023/11/03 10:11:58;;;;;;;13.25;9.82;;;;;;;25.14;36.14;93712.28;5041481;28;20048;-77
2023/11/03 10:14:24;;;;;;;13.07;9.48;;;;;;;25.52;36.28;93717.91;5025772;28;20436;-76
2023/11/03 10:16:51;;;;;;;12.20;8.98;;;;;;;26.09;34.23;93719.44;5007440;28;20036;-76
2023/11/03 10:19:18;;;;;;;14.00;9.00;;;;;;;26.02;34.35;93692.06;5050049;28;20052;-76
2023/11/03 10:21:43;;;;;;;15.20;10.63;;;;;;;26.50;34.23;93706.91;5062143;28;20029;-77
2023/11/03 10:24:09;;;;;;;14.65;9.68;;;;;;;26.76;33.67;93702.06;5032205;28;20104;-80
2023/11/03 10:26:35;;;;;;;12.60;9.45;;;;;;;26.89;33.82;93684.84;5027755;28;20032;-78
2023/11/03 10:29:03;;;;;;;16.10;9.50;;;;;;;27.01;33.03;93680.25;5041645;28;20049;-78
2023/11/03 10:31:29;;;;;;;14.45;9.27;;;;;;;27.20;33.26;93676.94;5027736;28;20024;-78
2023/11/03 10:33:55;;;;;;;14.02;9.57;;;;;;;27.40;32.91;93703.28;5026212;28;20029;-78
2023/11/03 10:36:21;;;;;;;15.25;11.10;;;;;;;27.49;32.33;93680.81;5040603;28;20028;-78
2023/11/03 10:38:47;;;;;;;17.05;11.30;;;;;;;27.66;32.63;93682.16;5061849;28;20060;-78
2023/11/03 10:41:12;;;;;;;12.52;9.80;;;;;;;27.55;32.21;93668.53;5061700;28;20025;-79
2023/11/03 10:43:40;;;;;;;13.48;9.75;;;;;;;27.62;32.19;93687.44;5062085;28;20534;-79
2023/11/03 10:46:18;;;;;;;15.90;11.35;;;;;;;27.22;33.14;93663.00;5044675;28;20032;-78
2023/11/03 10:48:52;;;;;;;16.77;10.00;;;;;;;28.20;31.32;93685.88;5062207;28;20436;-80
2023/11/03 10:51:37;;;;;;;13.43;10.02;;;;;;;28.70;30.11;93663.00;5061431;28;20032;-79
2023/11/03 10:54:44;;;;;;;11.02;9.35;;;;;;;29.68;27.91;93675.41;5026646;28;20030;-80
2023/11/03 10:57:10;;;;;;;12.43;9.48;;;;;;;30.70;26.71;93660.19;5009245;28;20052;-79
2023/11/03 10:59:39;;;;;;;11.32;8.40;;;;;;;31.90;25.05;93646.44;5024663;28;20032;-79
2023/11/03 11:02:11;;;;;;;10.40;8.10;;;;;;;32.87;24.11;93637.00;5025061;28;20770;-80
2023/11/03 11:04:52;;;;;;;12.77;8.73;;;;;;;34.12;22.69;93628.06;5041719;28;20480;-80
2023/11/03 11:07:19;;;;;;;12.55;9.23;;;;;;;34.10;22.77;93618.69;5024948;28;20478;-80
2023/11/03 11:09:45;;;;;;;11.88;9.45;;;;;;;34.01;22.50;93621.06;5039829;28;20492;-80
2023/11/03 11:12:13;;;;;;;12.13;9.38;;;;;;;34.98;21.43;93630.00;5005864;28;20026;-79